Time;durP1;ratioP1;P1;durP2;ratioP2;P2;SDS_P1;SDS_P2;PMS_P1;PMS_P2;Temp;Humidity;BMP_temperature;BMP_pressure;BME280_temperature;BME280_humidity;BME280_pressure;Samples;Min_cycle;Max_cycle;Signal;HPM_P1;HPM_P2
2021/03/14 00:00:37;;;;;;;2.10;1.30;;;8.20;87.20;;;;;;5052672;28;20063;-72
2021/03/14 00:03:07;;;;;;;2.33;1.10;;;8.20;87.00;;;;;;5037581;28;20045;-72
2021/03/14 00:05:34;;;;;;;4.60;1.80;;;8.20;86.90;;;;;;5038024;28;20021;-72
2021/03/14 00:07:59;;;;;;;3.35;1.40;;;8.30;86.90;;;;;;5050769;28;20040;-72
2021/03/14 00:10:25;;;;;;;3.20;1.38;;;8.30;86.60;;;;;;5051577;28;20025;-72
2021/03/14 00:12:51;;;;;;;3.13;1.20;;;8.30;86.30;;;;;;5051675;28;20025;-73
2021/03/14 00:15:20;;;;;;;5.43;1.92;;;8.30;86.10;;;;;;5052690;28;20075;-73
2021/03/14 00:17:45;;;;;;;4.20;1.40;;;8.30;86.00;;;;;;5051434;28;20358;-74
2021/03/14 00:20:12;;;;;;;4.13;1.70;;;8.30;86.00;;;;;;5052235;28;20031;-74
2021/03/14 00:22:37;;;;;;;2.35;1.40;;;8.40;85.70;;;;;;5064841;28;20032;-74
2021/03/14 00:25:05;;;;;;;3.42;1.50;;;8.40;85.60;;;;;;5072234;28;20029;-74
2021/03/14 00:27:31;;;;;;;2.55;1.30;;;8.40;85.30;;;;;;5085134;28;20021;-74
2021/03/14 00:29:56;;;;;;;2.17;1.10;;;8.50;84.80;;;;;;5061998;28;20048;-74
2021/03/14 00:32:22;;;;;;;2.38;1.20;;;8.50;84.70;;;;;;5051807;28;20119;-74
2021/03/14 00:34:47;;;;;;;2.33;1.30;;;8.50;84.20;;;;;;5060298;28;20028;-74
2021/03/14 00:37:13;;;;;;;3.22;1.20;;;8.60;83.90;;;;;;5057643;28;20040;-74
2021/03/14 00:39:38;;;;;;;4.55;1.50;;;8.60;83.30;;;;;;5052319;28;20021;-73
2021/03/14 00:42:04;;;;;;;4.78;1.35;;;8.60;83.40;;;;;;5050228;28;20048;-72
2021/03/14 00:44:30;;;;;;;6.95;1.98;;;8.60;83.20;;;;;;5050755;28;20025;-71
2021/03/14 00:46:55;;;;;;;5.85;1.20;;;8.60;82.90;;;;;;5058897;28;20025;-71
2021/03/14 00:49:22;;;;;;;3.30;1.35;;;8.60;82.80;;;;;;5071999;28;20020;-72
2021/03/14 00:51:48;;;;;;;2.35;1.30;;;8.60;82.70;;;;;;5061234;28;20497;-72
2021/03/14 00:54:13;;;;;;;5.85;1.40;;;8.60;82.50;;;;;;5050783;28;20068;-72
2021/03/14 00:56:39;;;;;;;2.40;1.20;;;8.60;82.20;;;;;;5047281;28;20435;-72
2021/03/14 00:59:05;;;;;;;2.40;1.38;;;8.60;82.00;;;;;;5070420;28;20477;-72
2021/03/14 01:01:30;;;;;;;2.25;1.38;;;8.60;81.70;;;;;;5060930;28;20372;-72
2021/03/14 01:03:56;;;;;;;4.47;1.30;;;8.60;81.20;;;;;;5056829;28;20040;-72
2021/03/14 01:06:22;;;;;;;3.03;1.35;;;8.60;81.60;;;;;;5049829;28;20101;-73
2021/03/14 01:08:48;;;;;;;3.35;1.52;;;8.60;81.30;;;;;;5051944;28;20127;-73
2021/03/14 01:11:14;;;;;;;2.33;1.60;;;8.60;80.80;;;;;;5052580;28;20377;-73
2021/03/14 01:13:40;;;;;;;5.13;1.30;;;8.60;80.70;;;;;;5071667;28;20025;-72
2021/03/14 01:16:05;;;;;;;4.68;1.50;;;8.60;80.80;;;;;;5063233;28;20124;-72
2021/03/14 01:18:31;;;;;;;3.40;1.70;;;8.60;80.50;;;;;;5068482;28;20024;-71
2021/03/14 01:20:56;;;;;;;3.75;1.67;;;8.60;80.30;;;;;;5048358;28;20029;-70
2021/03/14 01:23:22;;;;;;;2.65;1.40;;;8.60;80.00;;;;;;5071843;28;20021;-70
2021/03/14 01:25:48;;;;;;;3.13;1.50;;;8.70;80.00;;;;;;5057505;28;20029;-69
2021/03/14 01:28:13;;;;;;;2.60;1.50;;;8.70;79.80;;;;;;5047713;28;20024;-70
2021/03/14 01:30:39;;;;;;;2.85;1.30;;;8.70;79.60;;;;;;5058483;28;20029;-69
2021/03/14 01:33:04;;;;;;;2.25;1.50;;;8.70;79.20;;;;;;5049371;28;20493;-70
2021/03/14 01:35:30;;;;;;;2.97;1.60;;;8.60;79.20;;;;;;5045870;28;20122;-68
2021/03/14 01:37:55;;;;;;;5.55;2.17;;;8.60;79.20;;;;;;5031343;28;20363;-69
2021/03/14 01:40:23;;;;;;;1.88;1.35;;;8.60;79.50;;;;;;5045401;28;20044;-69
2021/03/14 01:42:48;;;;;;;2.90;1.33;;;8.60;79.30;;;;;;5045945;28;20029;-70
2021/03/14 01:45:14;;;;;;;3.58;1.58;;;8.60;79.40;;;;;;5036647;28;20047;-69
2021/03/14 01:47:46;;;;;;;3.83;1.40;;;8.60;79.40;;;;;;5035366;28;20025;-69
2021/03/14 01:50:18;;;;;;;5.47;1.88;;;8.60;79.60;;;;;;5035483;28;20078;-69
2021/03/14 01:52:45;;;;;;;5.05;1.60;;;8.50;79.50;;;;;;5034228;28;20061;-69
2021/03/14 01:55:11;;;;;;;3.25;1.63;;;8.50;79.50;;;;;;5034752;28;20368;-69
2021/03/14 01:57:37;;;;;;;4.13;2.00;;;8.50;79.60;;;;;;5058596;28;20044;-69
2021/03/14 02:00:15;;;;;;;3.83;1.63;;;8.50;79.70;;;;;;5064771;28;20109;-70
2021/03/14 02:02:41;;;;;;;3.60;1.58;;;8.50;79.80;;;;;;5064230;28;20024;-69
2021/03/14 02:05:09;;;;;;;2.20;1.40;;;8.50;79.80;;;;;;5080244;28;20025;-69
2021/03/14 02:07:36;;;;;;;5.07;1.55;;;8.50;79.80;;;;;;5058046;28;20021;-69
2021/03/14 02:10:03;;;;;;;4.00;1.50;;;8.50;79.80;;;;;;5041234;28;20044;-69
2021/03/14 02:12:35;;;;;;;5.30;1.55;;;8.50;79.80;;;;;;5054051;28;20028;-70
2021/03/14 02:15:02;;;;;;;6.18;1.80;;;8.40;79.80;;;;;;5050870;28;20037;-70
2021/03/14 02:17:33;;;;;;;3.78;1.83;;;8.50;79.50;;;;;;5057104;28;20028;-69
2021/03/14 02:20:07;;;;;;;6.35;1.60;;;8.50;79.20;;;;;;5045613;28;20100;-69
2021/03/14 02:22:33;;;;;;;5.43;1.88;;;8.50;79.10;;;;;;5047860;28;20064;-69
2021/03/14 02:25:01;;;;;;;5.35;1.90;;;8.50;79.20;;;;;;5051678;28;20040;-70
2021/03/14 02:27:27;;;;;;;4.30;1.90;;;8.50;78.90;;;;;;5065758;28;20032;-70
2021/03/14 02:29:54;;;;;;;5.10;2.00;;;8.50;79.20;;;;;;5050748;28;20025;-69
2021/03/14 02:32:22;;;;;;;4.63;2.38;;;8.50;79.20;;;;;;5061080;28;20077;-69
2021/03/14 02:34:53;;;;;;;5.40;2.10;;;8.50;79.10;;;;;;5030853;28;20029;-70
2021/03/14 02:37:20;;;;;;;3.90;1.70;;;8.60;79.10;;;;;;5060585;28;20037;-69
2021/03/14 02:39:46;;;;;;;2.85;1.90;;;8.50;78.90;;;;;;5050457;28;20029;-69
2021/03/14 02:42:13;;;;;;;3.78;1.67;;;8.50;79.20;;;;;;5058112;28;20477;-70
2021/03/14 02:44:43;;;;;;;3.10;1.90;;;8.50;80.00;;;;;;5035313;28;20049;-69
2021/03/14 02:47:09;;;;;;;3.88;1.98;;;8.50;79.90;;;;;;5043474;28;20036;-68
2021/03/14 02:49:35;;;;;;;4.43;2.10;;;8.50;80.50;;;;;;5054248;28;20033;-69
2021/03/14 02:52:04;;;;;;;3.92;1.92;;;8.40;81.40;;;;;;5053042;28;20029;-70
2021/03/14 02:54:31;;;;;;;4.13;2.25;;;8.40;81.90;;;;;;5053320;28;20485;-70
2021/03/14 02:56:57;;;;;;;5.22;2.20;;;8.40;82.40;;;;;;5054071;28;20586;-70
2021/03/14 02:59:24;;;;;;;3.00;2.10;;;8.40;82.90;;;;;;5054285;28;20060;-71
2021/03/14 03:01:51;;;;;;;5.35;2.25;;;8.40;83.10;;;;;;5073845;28;20469;-71
2021/03/14 03:04:24;;;;;;;5.00;2.85;;;8.40;83.90;;;;;;5052693;28;20051;-71
2021/03/14 03:06:53;;;;;;;4.22;2.22;;;8.40;84.00;;;;;;5054132;28;20436;-70
2021/03/14 03:09:19;;;;;;;6.05;2.65;;;8.40;84.40;;;;;;5052558;28;20033;-71
2021/03/14 03:11:48;;;;;;;6.10;2.40;;;8.30;85.00;;;;;;5051729;28;20104;-71
2021/03/14 03:14:16;;;;;;;4.30;2.33;;;8.30;85.60;;;;;;5036404;28;20535;-71
2021/03/14 03:16:45;;;;;;;6.28;3.00;;;8.30;85.90;;;;;;5053132;28;20031;-71
2021/03/14 03:19:12;;;;;;;6.60;2.75;;;8.30;86.60;;;;;;5033482;28;20486;-69
2021/03/14 03:21:38;;;;;;;5.28;2.72;;;8.30;88.00;;;;;;5073493;28;20445;-68
2021/03/14 03:24:05;;;;;;;4.40;2.85;;;8.20;87.90;;;;;;5052294;28;20041;-69
2021/03/14 03:26:30;;;;;;;6.38;2.80;;;8.20;88.80;;;;;;5059905;28;20127;-69
2021/03/14 03:28:56;;;;;;;4.95;2.60;;;8.20;88.60;;;;;;5044213;28;20123;-69
2021/03/14 03:31:21;;;;;;;5.28;2.70;;;8.20;89.00;;;;;;5068495;28;20031;-70
2021/03/14 03:33:47;;;;;;;4.07;2.53;;;8.10;90.10;;;;;;5033438;28;20056;-71
2021/03/14 03:36:12;;;;;;;4.47;2.70;;;8.10;90.00;;;;;;5051852;28;20033;-70
2021/03/14 03:38:38;;;;;;;5.32;2.28;;;8.10;90.30;;;;;;5052917;28;20021;-73
2021/03/14 03:41:04;;;;;;;5.05;2.10;;;8.00;90.50;;;;;;5049119;28;20029;-73
2021/03/14 03:43:35;;;;;;;2.88;1.90;;;8.00;90.70;;;;;;5036569;28;20021;-74
2021/03/14 03:46:03;;;;;;;3.78;2.08;;;7.90;91.00;;;;;;5064686;28;20037;-74
2021/03/14 03:48:45;;;;;;;3.47;1.73;;;7.80;91.10;;;;;;5052186;28;20112;-75
2021/03/14 03:51:13;;;;;;;2.78;1.80;;;7.70;91.50;;;;;;5048543;28;20069;-75
2021/03/14 03:53:40;;;;;;;3.20;1.80;;;7.70;91.70;;;;;;5032218;28;20032;-75
2021/03/14 03:56:06;;;;;;;2.65;1.70;;;7.60;91.90;;;;;;5047557;28;20139;-74
2021/03/14 03:58:34;;;;;;;2.65;1.58;;;7.60;91.90;;;;;;5053319;28;20045;-74
2021/03/14 04:01:01;;;;;;;2.55;1.80;;;7.50;92.00;;;;;;5063878;28;20039;-74
2021/03/14 04:03:28;;;;;;;4.38;1.98;;;7.50;92.30;;;;;;5051736;28;20033;-74
2021/03/14 04:05:58;;;;;;;1.90;1.50;;;7.50;92.30;;;;;;5051599;28;20102;-75
2021/03/14 04:08:25;;;;;;;2.78;1.80;;;7.40;92.60;;;;;;5053071;28;20035;-74
2021/03/14 04:10:52;;;;;;;3.30;2.22;;;7.40;92.70;;;;;;5052544;28;20047;-74
2021/03/14 04:13:18;;;;;;;3.03;1.58;;;7.40;92.80;;;;;;5051833;28;20044;-73
2021/03/14 04:15:44;;;;;;;1.77;1.23;;;7.40;93.20;;;;;;5063183;28;20072;-74
2021/03/14 04:18:11;;;;;;;3.40;1.13;;;7.30;93.30;;;;;;5052650;28;20108;-73
2021/03/14 04:20:39;;;;;;;2.42;1.10;;;7.30;93.80;;;;;;5064258;28;20029;-74
2021/03/14 04:23:13;;;;;;;1.38;1.20;;;7.20;93.60;;;;;;5052299;28;20508;-73
2021/03/14 04:25:40;;;;;;;1.75;1.10;;;7.20;93.70;;;;;;5049842;28;20087;-73
2021/03/14 04:28:06;;;;;;;2.97;1.13;;;7.20;93.70;;;;;;5033920;28;20030;-73
2021/03/14 04:30:32;;;;;;;1.77;1.10;;;7.10;93.90;;;;;;5049804;28;20208;-73
2021/03/14 04:33:00;;;;;;;1.70;1.05;;;7.10;93.80;;;;;;5052202;28;20032;-73
2021/03/14 04:35:26;;;;;;;2.55;1.20;;;7.10;94.20;;;;;;5060280;28;20043;-73
2021/03/14 04:37:53;;;;;;;2.00;1.00;;;7.10;94.00;;;;;;5052276;28;20067;-72
2021/03/14 04:40:18;;;;;;;3.30;1.17;;;7.00;94.20;;;;;;5050537;28;20044;-73
2021/03/14 04:42:47;;;;;;;1.20;0.80;;;7.00;94.20;;;;;;5051260;28;20037;-73
2021/03/14 04:45:13;;;;;;;2.20;1.20;;;7.00;94.20;;;;;;5057380;28;20371;-73
2021/03/14 04:47:41;;;;;;;2.17;0.80;;;7.00;94.30;;;;;;5051722;28;20025;-73
2021/03/14 04:50:08;;;;;;;1.52;0.90;;;7.00;94.40;;;;;;5050544;28;20040;-74
2021/03/14 04:52:35;;;;;;;1.25;0.90;;;7.00;94.40;;;;;;5030492;28;20018;-74
2021/03/14 04:55:01;;;;;;;1.58;0.90;;;6.90;94.40;;;;;;5045325;28;20120;-74
2021/03/14 04:57:27;;;;;;;1.35;0.82;;;6.90;94.40;;;;;;5051565;28;20060;-73
2021/03/14 04:59:54;;;;;;;2.58;0.88;;;6.90;94.70;;;;;;5054971;28;20024;-74
2021/03/14 05:02:21;;;;;;;1.85;0.90;;;6.80;94.50;;;;;;5052048;28;20025;-73
2021/03/14 05:04:48;;;;;;;1.63;1.02;;;6.90;94.50;;;;;;5050295;28;20032;-73
2021/03/14 05:07:14;;;;;;;1.05;0.90;;;6.80;94.50;;;;;;5050502;28;20535;-73
2021/03/14 05:09:41;;;;;;;1.35;0.90;;;6.80;94.60;;;;;;5052483;28;20036;-72
2021/03/14 05:12:08;;;;;;;1.55;1.10;;;6.80;94.70;;;;;;5033289;28;20060;-72
2021/03/14 05:14:35;;;;;;;1.02;0.90;;;6.80;94.80;;;;;;5035078;28;20110;-72
2021/03/14 05:17:02;;;;;;;1.23;0.90;;;6.80;94.90;;;;;;5031707;28;20402;-72
2021/03/14 05:19:30;;;;;;;1.10;1.00;;;6.80;94.90;;;;;;5033739;28;20035;-72
2021/03/14 05:21:57;;;;;;;2.38;1.10;;;6.80;94.80;;;;;;5052172;28;20021;-73
2021/03/14 05:24:23;;;;;;;1.25;1.10;;;6.80;94.90;;;;;;5049367;28;20025;-72
2021/03/14 05:26:49;;;;;;;3.17;1.25;;;6.80;94.90;;;;;;5033542;28;20133;-73
2021/03/14 05:29:16;;;;;;;3.40;1.27;;;6.80;94.90;;;;;;5033539;28;20033;-73
2021/03/14 05:31:42;;;;;;;2.08;1.05;;;6.80;94.90;;;;;;5051242;28;20040;-73
2021/03/14 05:34:13;;;;;;;2.03;1.38;;;6.70;95.10;;;;;;5050321;28;20067;-72
2021/03/14 05:36:38;;;;;;;1.65;1.05;;;6.70;95.00;;;;;;5051082;28;20037;-73
2021/03/14 05:39:05;;;;;;;2.28;0.90;;;6.70;95.00;;;;;;5047436;28;20619;-72
2021/03/14 05:41:33;;;;;;;1.40;0.90;;;6.70;95.10;;;;;;5033915;28;20482;-72
2021/03/14 05:44:00;;;;;;;2.00;1.13;;;6.70;95.00;;;;;;5039226;28;20535;-73
2021/03/14 05:46:25;;;;;;;2.20;1.10;;;6.70;95.10;;;;;;5050780;28;20029;-71
2021/03/14 05:48:51;;;;;;;2.08;1.05;;;6.70;95.10;;;;;;5051092;28;20028;-71
2021/03/14 05:51:27;;;;;;;2.47;1.35;;;6.70;95.10;;;;;;5055170;28;20409;-72
2021/03/14 05:53:56;;;;;;;1.77;1.08;;;6.70;95.40;;;;;;5051092;28;20087;-73
2021/03/14 05:56:22;;;;;;;3.30;1.05;;;6.70;95.30;;;;;;5050109;28;20037;-73
2021/03/14 05:58:49;;;;;;;1.38;1.10;;;6.70;95.20;;;;;;5050935;28;20052;-73
2021/03/14 06:01:17;;;;;;;2.58;1.05;;;6.70;95.20;;;;;;5049287;28;20112;-73
2021/03/14 06:03:43;;;;;;;2.15;1.17;;;6.70;95.30;;;;;;5050898;28;20078;-73
2021/03/14 06:06:11;;;;;;;1.25;0.95;;;6.70;95.30;;;;;;5040901;28;20116;-73
2021/03/14 06:08:37;;;;;;;1.50;1.23;;;6.70;95.30;;;;;;5032453;28;20026;-73
2021/03/14 06:11:04;;;;;;;1.73;1.10;;;6.70;95.40;;;;;;5048238;28;20021;-73
2021/03/14 06:13:30;;;;;;;2.38;1.27;;;6.70;95.40;;;;;;5051223;28;20040;-74
2021/03/14 06:15:56;;;;;;;1.63;1.00;;;6.70;95.30;;;;;;5051806;28;20052;-74
2021/03/14 06:18:22;;;;;;;2.90;1.20;;;6.70;95.30;;;;;;5051917;28;20021;-74
2021/03/14 06:20:48;;;;;;;1.48;1.10;;;6.80;95.40;;;;;;5053181;28;20056;-74
2021/03/14 06:23:15;;;;;;;2.50;1.20;;;6.70;95.40;;;;;;5036152;28;20564;-76
2021/03/14 06:25:46;;;;;;;1.95;1.20;;;6.70;95.30;;;;;;5038532;28;20029;-73
2021/03/14 06:28:13;;;;;;;2.70;1.33;;;6.80;95.40;;;;;;5038137;28;20432;-73
2021/03/14 06:30:39;;;;;;;1.98;1.40;;;6.70;95.40;;;;;;5060416;28;20120;-72
2021/03/14 06:33:13;;;;;;;2.38;1.80;;;6.70;95.50;;;;;;5034388;28;20132;-72
2021/03/14 06:35:48;;;;;;;3.00;1.50;;;6.70;95.50;;;;;;5038929;28;20073;-72
2021/03/14 06:38:21;;;;;;;2.97;1.70;;;6.70;95.50;;;;;;5034918;28;20416;-72
2021/03/14 06:40:49;;;;;;;2.30;1.50;;;6.70;95.60;;;;;;5048546;28;20068;-72
2021/03/14 06:43:15;;;;;;;2.40;1.90;;;6.80;95.60;;;;;;5054641;28;20470;-71
2021/03/14 06:45:43;;;;;;;5.13;1.90;;;6.80;95.50;;;;;;5052626;28;20037;-72
2021/03/14 06:48:08;;;;;;;2.13;1.80;;;6.80;95.60;;;;;;5060926;28;20159;-72
2021/03/14 06:50:41;;;;;;;3.33;1.75;;;6.80;95.60;;;;;;5060691;28;20113;-71
2021/03/14 06:53:16;;;;;;;3.40;1.98;;;6.80;95.60;;;;;;5056766;28;20102;-71
2021/03/14 06:55:42;;;;;;;3.95;1.40;;;6.90;95.50;;;;;;5052963;28;20041;-71
2021/03/14 06:58:28;;;;;;;4.70;1.67;;;6.90;95.50;;;;;;5052876;28;20579;-71
2021/03/14 07:01:10;;;;;;;2.10;1.52;;;6.80;95.60;;;;;;5052748;28;20041;-74
2021/03/14 07:03:38;;;;;;;2.88;1.80;;;6.90;95.60;;;;;;5054250;28;20485;-72
2021/03/14 07:06:15;;;;;;;1.85;1.48;;;6.80;95.50;;;;;;5051612;28;20037;-73
2021/03/14 07:08:44;;;;;;;3.10;1.58;;;6.80;95.60;;;;;;5054658;28;20473;-73
2021/03/14 07:11:10;;;;;;;2.28;1.35;;;6.90;95.50;;;;;;5045928;28;20060;-73
2021/03/14 07:13:37;;;;;;;2.25;1.70;;;6.90;95.60;;;;;;5033958;28;20470;-73
2021/03/14 07:16:04;;;;;;;4.05;1.60;;;6.90;95.70;;;;;;5050222;28;20037;-73
2021/03/14 07:18:30;;;;;;;2.35;1.65;;;6.90;95.60;;;;;;5053166;28;20029;-73
2021/03/14 07:20:55;;;;;;;2.50;1.50;;;7.00;95.70;;;;;;5063987;28;20027;-72
2021/03/14 07:23:32;;;;;;;3.22;1.63;;;7.00;95.60;;;;;;5053608;28;20024;-73
2021/03/14 07:25:58;;;;;;;2.00;1.35;;;7.00;95.60;;;;;;5052998;28;20029;-73
2021/03/14 07:28:25;;;;;;;2.40;1.55;;;7.00;95.70;;;;;;5054044;28;20036;-73
2021/03/14 07:30:52;;;;;;;2.25;1.40;;;7.00;95.70;;;;;;5050363;28;20026;-73
2021/03/14 07:33:18;;;;;;;2.17;1.40;;;7.00;95.60;;;;;;5043568;28;20029;-74
2021/03/14 07:35:44;;;;;;;4.45;1.60;;;7.10;95.60;;;;;;5052233;28;20051;-75
2021/03/14 07:38:11;;;;;;;2.53;1.42;;;7.10;95.50;;;;;;5051496;28;20032;-71
2021/03/14 07:40:36;;;;;;;2.90;1.23;;;7.10;95.50;;;;;;5062698;28;20044;-75
2021/03/14 07:43:03;;;;;;;1.67;1.23;;;7.10;95.40;;;;;;5056137;28;20373;-77
2021/03/14 07:45:30;;;;;;;2.38;1.40;;;7.10;95.40;;;;;;5048569;28;20036;-75
2021/03/14 07:47:57;;;;;;;2.00;1.20;;;7.20;95.30;;;;;;5059880;28;20027;-74
2021/03/14 07:50:45;;;;;;;2.22;1.42;;;7.20;95.30;;;;;;5059933;28;20043;-74
2021/03/14 07:53:16;;;;;;;3.90;1.50;;;7.20;95.30;;;;;;5057383;28;20053;-74
2021/03/14 07:55:52;;;;;;;2.95;1.40;;;7.30;95.20;;;;;;5054150;28;20044;-74
2021/03/14 07:58:22;;;;;;;1.88;1.30;;;7.40;95.40;;;;;;5055365;28;20132;-75
2021/03/14 08:00:48;;;;;;;2.03;1.08;;;7.40;95.10;;;;;;5054626;28;20032;-75
2021/03/14 08:03:13;;;;;;;1.35;1.00;;;7.40;95.00;;;;;;5062916;28;20230;-75
2021/03/14 08:05:39;;;;;;;2.20;1.10;;;7.40;95.00;;;;;;5051696;28;20033;-74
2021/03/14 08:08:09;;;;;;;2.35;1.48;;;7.40;95.00;;;;;;5053258;28;20618;-74
2021/03/14 08:10:45;;;;;;;3.80;1.60;;;7.40;95.00;;;;;;5041546;28;20116;-75
2021/03/14 08:13:16;;;;;;;5.43;1.50;;;7.50;95.10;;;;;;5038205;28;20034;-75
2021/03/14 08:15:42;;;;;;;2.70;1.65;;;7.50;95.00;;;;;;5060534;28;20129;-74
2021/03/14 08:18:35;;;;;;;3.92;1.30;;;7.60;94.90;;;;;;5057579;28;20022;-74
2021/03/14 08:21:01;;;;;;;2.15;1.35;;;7.60;94.80;;;;;;5068494;28;20039;-74
2021/03/14 08:23:44;;;;;;;2.40;1.50;;;7.60;94.90;;;;;;5054599;28;20024;-74
2021/03/14 08:26:18;;;;;;;3.72;1.40;;;7.60;94.60;;;;;;5068754;28;20040;-73
2021/03/14 08:29:12;;;;;;;4.32;1.50;;;7.70;94.60;;;;;;5055017;28;20025;-72
2021/03/14 08:31:46;;;;;;;2.13;1.20;;;7.70;94.40;;;;;;5037121;28;20033;-72
2021/03/14 08:34:23;;;;;;;4.33;1.60;;;7.70;94.40;;;;;;5052973;28;20017;-73
2021/03/14 08:36:50;;;;;;;2.80;1.58;;;7.80;94.40;;;;;;5051821;28;20108;-73
2021/03/14 08:39:38;;;;;;;5.20;2.22;;;7.80;94.30;;;;;;5035677;28;20029;-73
2021/03/14 08:42:05;;;;;;;6.70;2.17;;;7.80;94.60;;;;;;5061668;28;20025;-73
2021/03/14 08:44:41;;;;;;;3.50;2.03;;;7.80;94.30;;;;;;5056472;28;20070;-73
2021/03/14 08:47:16;;;;;;;8.40;2.42;;;7.80;94.30;;;;;;5063042;28;20032;-73
2021/03/14 08:49:52;;;;;;;;;;;7.80;94.20;;;;;;5066575;28;20070;-74
2021/03/14 08:52:18;;;;;;;3.33;1.83;;;7.80;94.20;;;;;;5051553;28;19912;-73
2021/03/14 08:54:48;;;;;;;3.95;2.13;;;7.80;94.20;;;;;;5055519;28;20506;-73
2021/03/14 08:57:15;;;;;;;3.53;2.22;;;7.80;94.20;;;;;;5047600;28;20059;-74
2021/03/14 08:59:55;;;;;;;6.13;2.35;;;7.90;94.40;;;;;;5051361;28;20542;-73
2021/03/14 09:02:32;;;;;;;4.25;2.35;;;7.90;94.40;;;;;;5051640;28;20072;-72
2021/03/14 09:05:12;;;;;;;4.30;1.98;;;7.80;94.50;;;;;;5056692;28;20028;-73
2021/03/14 09:07:39;;;;;;;6.63;2.08;;;7.90;94.60;;;;;;5060290;28;20028;-72
2021/03/14 09:10:17;;;;;;;2.30;1.60;;;7.80;94.70;;;;;;5050385;28;20021;-74
2021/03/14 09:12:45;;;;;;;5.35;1.60;;;7.70;94.90;;;;;;5047398;28;20386;-74
2021/03/14 09:15:12;;;;;;;2.17;1.30;;;7.70;94.90;;;;;;5047838;28;20112;-73
2021/03/14 09:17:40;;;;;;;2.33;1.50;;;7.70;94.80;;;;;;5052087;28;20029;-73
2021/03/14 09:20:07;;;;;;;2.00;1.50;;;7.70;94.70;;;;;;5054083;28;20024;-72
2021/03/14 09:22:34;;;;;;;3.55;2.20;;;7.60;94.80;;;;;;5054938;28;20090;-73
2021/03/14 09:25:01;;;;;;;3.45;1.58;;;7.60;95.00;;;;;;5050411;28;20021;-72
2021/03/14 09:27:29;;;;;;;3.08;1.50;;;7.60;95.10;;;;;;5052377;28;20094;-73
2021/03/14 09:30:10;;;;;;;4.10;1.80;;;7.70;95.10;;;;;;5051385;28;20107;-74
2021/03/14 09:32:37;;;;;;;2.67;1.60;;;7.80;95.20;;;;;;5053765;28;20029;-73
2021/03/14 09:35:29;;;;;;;2.65;1.52;;;7.80;95.20;;;;;;5032796;28;20060;-76
2021/03/14 09:38:08;;;;;;;2.72;1.50;;;7.80;95.40;;;;;;5035504;28;20021;-79
2021/03/14 09:40:39;;;;;;;3.15;1.35;;;7.90;95.20;;;;;;5053617;28;20037;-74
2021/03/14 09:43:23;;;;;;;2.35;1.38;;;7.90;95.00;;;;;;5052435;28;20036;-77
2021/03/14 09:45:51;;;;;;;4.22;2.00;;;7.90;95.00;;;;;;5038188;28;20026;-70
2021/03/14 09:48:24;;;;;;;4.18;1.90;;;8.00;94.80;;;;;;5057042;28;20124;-72
2021/03/14 09:50:52;;;;;;;3.38;2.05;;;8.00;94.70;;;;;;5052578;28;20028;-71
2021/03/14 09:53:44;;;;;;;5.78;2.97;;;8.10;94.80;;;;;;5039560;28;20500;-70
2021/03/14 09:56:12;;;;;;;4.72;2.47;;;8.10;94.70;;;;;;5054520;28;20107;-71
2021/03/14 09:58:38;;;;;;;6.28;2.60;;;8.20;94.60;;;;;;5055828;28;20085;-70
2021/03/14 10:01:09;;;;;;;10.55;5.40;;;8.20;94.60;;;;;;5055627;28;20134;-70
2021/03/14 10:03:35;;;;;;;11.93;5.63;;;8.30;94.60;;;;;;5040828;28;20234;-71
2021/03/14 10:06:06;;;;;;;16.48;7.10;;;8.40;94.60;;;;;;5049963;28;20130;-71
2021/03/14 10:08:37;;;;;;;42.00;20.05;;;8.50;94.60;;;;;;5054504;28;20025;-72
2021/03/14 10:11:12;;;;;;;20.33;9.10;;;8.60;94.50;;;;;;5054207;28;20024;-71
2021/03/14 10:13:39;;;;;;;16.70;8.60;;;8.60;94.60;;;;;;5052447;28;20037;-71
2021/03/14 10:16:10;;;;;;;18.77;7.72;;;8.70;94.20;;;;;;5052979;28;20544;-71
2021/03/14 10:18:35;;;;;;;24.95;10.23;;;8.70;94.20;;;;;;5054633;28;20099;-70
2021/03/14 10:21:15;;;;;;;12.07;5.40;;;8.60;94.20;;;;;;5058368;28;20025;-71
2021/03/14 10:23:41;;;;;;;7.38;3.83;;;8.70;94.20;;;;;;5054856;28;20025;-71
2021/03/14 10:26:11;;;;;;;5.68;2.97;;;8.70;94.20;;;;;;5052622;28;20035;-70
2021/03/14 10:28:38;;;;;;;10.90;4.50;;;8.70;93.90;;;;;;5054579;28;20021;-71
2021/03/14 10:31:06;;;;;;;4.85;2.33;;;8.80;93.90;;;;;;5051679;28;20033;-71
2021/03/14 10:33:35;;;;;;;6.75;2.90;;;8.80;93.70;;;;;;5054402;28;20025;-71
2021/03/14 10:36:15;;;;;;;5.80;2.65;;;8.80;93.70;;;;;;5053764;28;20061;-71
2021/03/14 10:38:49;;;;;;;7.47;3.15;;;8.90;93.50;;;;;;5053797;28;20112;-71
2021/03/14 10:41:22;;;;;;;4.80;2.78;;;8.90;93.70;;;;;;5052261;28;20038;-70
2021/03/14 10:43:53;;;;;;;6.20;2.83;;;8.90;93.60;;;;;;5058954;28;20108;-70
2021/03/14 10:46:42;;;;;;;6.20;3.13;;;8.90;93.50;;;;;;5051453;28;20569;-72
2021/03/14 10:49:24;;;;;;;5.75;2.92;;;8.90;93.50;;;;;;5052012;28;20121;-71
2021/03/14 10:51:55;;;;;;;10.52;2.88;;;8.90;93.40;;;;;;5034133;28;20068;-71
2021/03/14 10:54:22;;;;;;;6.00;3.28;;;8.80;93.30;;;;;;5037109;28;20091;-71
2021/03/14 10:56:50;;;;;;;4.85;2.45;;;8.80;93.50;;;;;;5034534;28;20067;-71
2021/03/14 10:59:28;;;;;;;5.78;2.75;;;8.90;93.50;;;;;;5036195;28;20083;-71
2021/03/14 11:02:00;;;;;;;6.78;2.88;;;8.90;93.40;;;;;;5061732;28;20032;-73
2021/03/14 11:04:27;;;;;;;9.10;3.78;;;8.90;93.30;;;;;;5045895;28;20033;-72
2021/03/14 11:06:54;;;;;;;4.97;2.78;;;9.00;93.20;;;;;;5052876;28;20021;-72
2021/03/14 11:09:20;;;;;;;4.72;2.60;;;9.00;93.00;;;;;;5049742;28;20036;-72
2021/03/14 11:11:47;;;;;;;5.13;3.00;;;9.00;93.00;;;;;;5055975;28;20025;-73
2021/03/14 11:14:36;;;;;;;5.78;2.83;;;9.00;93.00;;;;;;5050844;28;20065;-73
2021/03/14 11:17:15;;;;;;;5.28;2.58;;;9.10;92.60;;;;;;5053323;28;20388;-73
2021/03/14 11:19:46;;;;;;;7.28;3.20;;;9.10;92.50;;;;;;5053378;28;20029;-73
2021/03/14 11:22:13;;;;;;;6.50;2.67;;;9.20;92.40;;;;;;5052986;28;20094;-72
2021/03/14 11:24:39;;;;;;;6.10;2.92;;;9.20;92.20;;;;;;5053093;28;20032;-72
2021/03/14 11:27:05;;;;;;;9.20;3.30;;;9.30;92.20;;;;;;5052758;28;20025;-74
2021/03/14 11:29:31;;;;;;;6.47;2.55;;;9.30;91.80;;;;;;5046973;28;20040;-74
2021/03/14 11:31:57;;;;;;;6.40;3.13;;;9.30;91.80;;;;;;5033748;28;20033;-74
2021/03/14 11:34:22;;;;;;;5.03;2.47;;;9.30;91.50;;;;;;5044804;28;20025;-73
2021/03/14 11:36:49;;;;;;;4.72;2.65;;;9.30;91.60;;;;;;5051541;28;20041;-73
2021/03/14 11:39:15;;;;;;;4.00;2.47;;;9.30;91.70;;;;;;5073318;28;20356;-73
2021/03/14 11:41:40;;;;;;;6.57;3.38;;;9.40;91.80;;;;;;5063834;28;20104;-72
2021/03/14 11:44:06;;;;;;;5.32;2.78;;;9.40;91.90;;;;;;5052901;28;20078;-72
2021/03/14 11:46:33;;;;;;;6.30;2.38;;;9.50;91.70;;;;;;5049713;28;20030;-73
2021/03/14 11:48:58;;;;;;;6.00;2.78;;;9.50;91.60;;;;;;5036895;28;20087;-75
2021/03/14 11:51:24;;;;;;;7.03;2.42;;;9.60;91.40;;;;;;5051113;28;20029;-73
2021/03/14 11:53:49;;;;;;;7.55;2.63;;;9.70;90.90;;;;;;5051642;28;20468;-73
2021/03/14 11:56:15;;;;;;;6.28;2.80;;;9.70;90.50;;;;;;5052510;28;20044;-72
2021/03/14 11:58:41;;;;;;;6.93;3.00;;;9.80;90.70;;;;;;5052608;28;20065;-73
2021/03/14 12:01:07;;;;;;;6.50;2.67;;;9.90;90.50;;;;;;5052867;28;20084;-72
2021/03/14 12:03:32;;;;;;;6.32;2.65;;;10.00;89.20;;;;;;5052728;28;20500;-73
2021/03/14 12:05:58;;;;;;;7.10;2.65;;;10.00;89.30;;;;;;5051990;28;20116;-73
2021/03/14 12:08:24;;;;;;;5.38;2.50;;;10.20;89.50;;;;;;5050521;28;20393;-72
2021/03/14 12:10:50;;;;;;;7.78;2.38;;;10.30;88.70;;;;;;5051762;28;20025;-72
2021/03/14 12:13:16;;;;;;;4.68;2.60;;;10.40;85.40;;;;;;5051540;28;20537;-71
2021/03/14 12:15:41;;;;;;;5.25;2.45;;;10.30;86.40;;;;;;5051241;28;20037;-72
2021/03/14 12:18:07;;;;;;;5.97;2.22;;;10.40;86.10;;;;;;5051773;28;20115;-72
2021/03/14 12:20:33;;;;;;;5.82;2.10;;;10.40;84.90;;;;;;5051338;28;20063;-72
2021/03/14 12:22:58;;;;;;;6.60;2.65;;;10.40;83.20;;;;;;5051594;28;20029;-73
2021/03/14 12:25:24;;;;;;;9.43;2.97;;;10.40;84.20;;;;;;5051650;28;20044;-74
2021/03/14 12:27:50;;;;;;;12.60;3.30;;;10.50;85.60;;;;;;5052393;28;20063;-73
2021/03/14 12:30:16;;;;;;;6.78;2.63;;;10.60;85.60;;;;;;5052188;28;20049;-71
2021/03/14 12:32:42;;;;;;;5.53;2.20;;;10.60;85.60;;;;;;5046117;28;20106;-69
2021/03/14 12:35:08;;;;;;;8.45;2.60;;;10.50;85.50;;;;;;5051197;28;20047;-71
2021/03/14 12:37:33;;;;;;;7.22;2.95;;;10.50;85.40;;;;;;5048020;28;20021;-72
2021/03/14 12:39:59;;;;;;;6.32;2.97;;;10.50;85.90;;;;;;5050296;28;20120;-72
2021/03/14 12:42:25;;;;;;;5.35;2.47;;;10.40;86.80;;;;;;5051884;28;20025;-72
2021/03/14 12:44:50;;;;;;;6.55;2.85;;;10.40;87.00;;;;;;5051283;28;20025;-72
2021/03/14 12:47:16;;;;;;;4.97;2.20;;;10.40;87.60;;;;;;5045869;28;20024;-73
2021/03/14 12:49:41;;;;;;;7.82;2.50;;;10.40;87.50;;;;;;5051656;28;20017;-72
2021/03/14 12:52:07;;;;;;;6.15;2.90;;;10.30;86.50;;;;;;5053048;28;20025;-72
2021/03/14 12:54:32;;;;;;;5.50;2.40;;;10.40;86.60;;;;;;5048419;28;20421;-72
2021/03/14 12:56:58;;;;;;;4.22;2.08;;;10.30;86.00;;;;;;5048348;28;20088;-72
2021/03/14 12:59:23;;;;;;;4.30;2.33;;;10.30;86.30;;;;;;5049795;28;20029;-72
2021/03/14 13:01:49;;;;;;;5.80;2.40;;;10.30;86.80;;;;;;5051651;28;20033;-72